sensor_id;sensor_type;location;lat;lon;timestamp;temperature;humidity
314;DHT22;143;51.634;7.112;2023-11-21T00:01:51;10.30;1.00
314;DHT22;143;51.634;7.112;2023-11-21T00:04:17;10.10;1.00
314;DHT22;143;51.634;7.112;2023-11-21T00:06:42;10.10;1.00
314;DHT22;143;51.634;7.112;2023-11-21T00:09:08;10.10;1.00
314;DHT22;143;51.634;7.112;2023-11-21T00:11:36;10.00;1.00
314;DHT22;143;51.634;7.112;2023-11-21T00:14:03;9.90;1.00
314;DHT22;143;51.634;7.112;2023-11-21T00:16:29;10.00;1.00
314;DHT22;143;51.634;7.112;2023-11-21T00:18:54;10.30;1.00
314;DHT22;143;51.634;7.112;2023-11-21T00:21:20;10.00;1.00
314;DHT22;143;51.634;7.112;2023-11-21T00:23:45;10.40;1.00
314;DHT22;143;51.634;7.112;2023-11-21T00:26:11;10.10;1.00
314;DHT22;143;51.634;7.112;2023-11-21T00:28:37;10.20;1.00
314;DHT22;143;51.634;7.112;2023-11-21T00:31:02;10.20;1.00
314;DHT22;143;51.634;7.112;2023-11-21T00:33:29;10.30;1.00
314;DHT22;143;51.634;7.112;2023-11-21T00:35:55;10.20;1.00
314;DHT22;143;51.634;7.112;2023-11-21T00:38:20;10.20;1.00
314;DHT22;143;51.634;7.112;2023-11-21T00:40:46;10.20;1.00
314;DHT22;143;51.634;7.112;2023-11-21T00:43:12;10.20;1.00
314;DHT22;143;51.634;7.112;2023-11-21T00:45:37;10.10;1.00
314;DHT22;143;51.634;7.112;2023-11-21T00:48:03;10.00;1.00
314;DHT22;143;51.634;7.112;2023-11-21T00:50:30;10.10;1.00
314;DHT22;143;51.634;7.112;2023-11-21T00:52:56;10.10;1.00
314;DHT22;143;51.634;7.112;2023-11-21T00:55:21;10.10;1.00
314;DHT22;143;51.634;7.112;2023-11-21T00:57:47;10.10;1.00
314;DHT22;143;51.634;7.112;2023-11-21T01:00:13;10.10;1.00
314;DHT22;143;51.634;7.112;2023-11-21T01:02:45;10.20;1.00
314;DHT22;143;51.634;7.112;2023-11-21T01:05:10;10.20;1.00
314;DHT22;143;51.634;7.112;2023-11-21T01:07:36;10.10;1.00
314;DHT22;143;51.634;7.112;2023-11-21T01:10:03;10.10;1.00
314;DHT22;143;51.634;7.112;2023-11-21T01:12:34;10.10;1.00
314;DHT22;143;51.634;7.112;2023-11-21T01:15:00;10.10;1.00
314;DHT22;143;51.634;7.112;2023-11-21T01:17:26;10.20;1.00
314;DHT22;143;51.634;7.112;2023-11-21T01:19:52;10.10;1.00
314;DHT22;143;51.634;7.112;2023-11-21T01:22:18;10.30;1.00
314;DHT22;143;51.634;7.112;2023-11-21T01:24:47;10.10;1.00
314;DHT22;143;51.634;7.112;2023-11-21T01:27:13;10.10;1.00
314;DHT22;143;51.634;7.112;2023-11-21T01:29:38;10.20;1.00
314;DHT22;143;51.634;7.112;2023-11-21T01:32:04;10.10;1.00
314;DHT22;143;51.634;7.112;2023-11-21T01:34:32;10.10;1.00
314;DHT22;143;51.634;7.112;2023-11-21T01:36:57;10.10;1.00
314;DHT22;143;51.634;7.112;2023-11-21T01:39:23;10.10;1.00
314;DHT22;143;51.634;7.112;2023-11-21T01:41:50;10.00;1.00
314;DHT22;143;51.634;7.112;2023-11-21T01:44:17;10.00;1.00
314;DHT22;143;51.634;7.112;2023-11-21T01:46:45;10.20;1.00
314;DHT22;143;51.634;7.112;2023-11-21T01:49:12;10.10;1.00
314;DHT22;143;51.634;7.112;2023-11-21T01:51:40;10.00;1.00
314;DHT22;143;51.634;7.112;2023-11-21T01:54:07;10.00;1.00
314;DHT22;143;51.634;7.112;2023-11-21T01:56:32;10.00;1.00
314;DHT22;143;51.634;7.112;2023-11-21T01:58:59;9.90;1.00
314;DHT22;143;51.634;7.112;2023-11-21T02:01:24;10.00;1.00
314;DHT22;143;51.634;7.112;2023-11-21T02:03:51;9.80;1.00
314;DHT22;143;51.634;7.112;2023-11-21T02:06:17;9.90;1.00
314;DHT22;143;51.634;7.112;2023-11-21T02:08:43;9.80;1.00
314;DHT22;143;51.634;7.112;2023-11-21T02:11:10;9.80;1.00
314;DHT22;143;51.634;7.112;2023-11-21T02:13:38;9.80;1.00
314;DHT22;143;51.634;7.112;2023-11-21T02:16:09;9.80;1.00
314;DHT22;143;51.634;7.112;2023-11-21T02:18:35;9.70;1.00
314;DHT22;143;51.634;7.112;2023-11-21T02:21:04;9.70;1.00
314;DHT22;143;51.634;7.112;2023-11-21T02:23:29;9.90;1.00
314;DHT22;143;51.634;7.112;2023-11-21T02:25:56;9.70;1.00
314;DHT22;143;51.634;7.112;2023-11-21T02:28:21;9.60;1.00
314;DHT22;143;51.634;7.112;2023-11-21T02:30:51;9.60;1.00
314;DHT22;143;51.634;7.112;2023-11-21T02:33:21;9.70;1.00
314;DHT22;143;51.634;7.112;2023-11-21T02:35:47;9.50;1.00
314;DHT22;143;51.634;7.112;2023-11-21T02:38:12;9.60;1.00
314;DHT22;143;51.634;7.112;2023-11-21T02:40:38;9.60;1.00
314;DHT22;143;51.634;7.112;2023-11-21T02:43:04;9.50;1.00
314;DHT22;143;51.634;7.112;2023-11-21T02:45:31;9.50;1.00
314;DHT22;143;51.634;7.112;2023-11-21T02:47:57;9.60;1.00
314;DHT22;143;51.634;7.112;2023-11-21T02:50:23;9.40;1.00
314;DHT22;143;51.634;7.112;2023-11-21T02:52:49;9.50;1.00
314;DHT22;143;51.634;7.112;2023-11-21T02:55:15;9.40;1.00
314;DHT22;143;51.634;7.112;2023-11-21T02:57:41;9.30;1.00
314;DHT22;143;51.634;7.112;2023-11-21T03:00:07;9.40;1.00
314;DHT22;143;51.634;7.112;2023-11-21T03:02:33;9.50;1.00
314;DHT22;143;51.634;7.112;2023-11-21T03:05:02;9.30;1.00
314;DHT22;143;51.634;7.112;2023-11-21T03:07:27;9.20;1.00
314;DHT22;143;51.634;7.112;2023-11-21T03:09:53;9.20;1.00
314;DHT22;143;51.634;7.112;2023-11-21T03:12:19;9.30;1.00
314;DHT22;143;51.634;7.112;2023-11-21T03:14:45;9.40;1.00
314;DHT22;143;51.634;7.112;2023-11-21T03:17:10;9.40;1.00
314;DHT22;143;51.634;7.112;2023-11-21T03:19:36;9.20;1.00
314;DHT22;143;51.634;7.112;2023-11-21T03:22:02;9.20;1.00
314;DHT22;143;51.634;7.112;2023-11-21T03:24:29;9.40;1.00
314;DHT22;143;51.634;7.112;2023-11-21T03:26:55;9.50;1.00
314;DHT22;143;51.634;7.112;2023-11-21T03:29:20;9.20;1.00
314;DHT22;143;51.634;7.112;2023-11-21T03:31:46;9.20;1.00
314;DHT22;143;51.634;7.112;2023-11-21T03:34:19;9.20;1.00
314;DHT22;143;51.634;7.112;2023-11-21T03:36:45;9.30;1.00
314;DHT22;143;51.634;7.112;2023-11-21T03:39:11;9.20;1.00
314;DHT22;143;51.634;7.112;2023-11-21T03:41:37;9.10;1.00
314;DHT22;143;51.634;7.112;2023-11-21T03:44:03;9.30;1.00
314;DHT22;143;51.634;7.112;2023-11-21T03:46:28;9.10;1.00
314;DHT22;143;51.634;7.112;2023-11-21T03:48:54;9.30;1.00
314;DHT22;143;51.634;7.112;2023-11-21T03:51:21;9.30;1.00
314;DHT22;143;51.634;7.112;2023-11-21T03:53:47;9.20;1.00
314;DHT22;143;51.634;7.112;2023-11-21T03:56:14;9.30;1.00
314;DHT22;143;51.634;7.112;2023-11-21T03:58:39;9.00;1.00
314;DHT22;143;51.634;7.112;2023-11-21T04:01:05;9.20;1.00
314;DHT22;143;51.634;7.112;2023-11-21T04:03:31;9.10;1.00
314;DHT22;143;51.634;7.112;2023-11-21T04:05:56;9.10;1.00
314;DHT22;143;51.634;7.112;2023-11-21T04:08:22;9.40;1.00
314;DHT22;143;51.634;7.112;2023-11-21T04:10:48;9.20;1.00
314;DHT22;143;51.634;7.112;2023-11-21T04:13:14;9.40;1.00
314;DHT22;143;51.634;7.112;2023-11-21T04:15:39;9.20;1.00
314;DHT22;143;51.634;7.112;2023-11-21T04:18:05;9.20;1.00
314;DHT22;143;51.634;7.112;2023-11-21T04:20:30;9.30;1.00
314;DHT22;143;51.634;7.112;2023-11-21T04:22:56;9.10;1.00
314;DHT22;143;51.634;7.112;2023-11-21T04:25:22;9.40;1.00
314;DHT22;143;51.634;7.112;2023-11-21T04:27:48;9.40;1.00
314;DHT22;143;51.634;7.112;2023-11-21T04:30:14;9.30;1.00
314;DHT22;143;51.634;7.112;2023-11-21T04:32:40;9.20;1.00
314;DHT22;143;51.634;7.112;2023-11-21T04:35:07;9.30;1.00
314;DHT22;143;51.634;7.112;2023-11-21T04:37:34;9.30;1.00
314;DHT22;143;51.634;7.112;2023-11-21T04:39:59;9.30;1.00
314;DHT22;143;51.634;7.112;2023-11-21T04:42:25;9.30;1.00
314;DHT22;143;51.634;7.112;2023-11-21T04:44:50;9.30;1.00
314;DHT22;143;51.634;7.112;2023-11-21T04:47:18;9.20;1.00
314;DHT22;143;51.634;7.112;2023-11-21T04:49:46;9.40;1.00
314;DHT22;143;51.634;7.112;2023-11-21T04:52:12;9.20;1.00
314;DHT22;143;51.634;7.112;2023-11-21T04:54:38;9.30;1.00
314;DHT22;143;51.634;7.112;2023-11-21T04:57:05;9.20;1.00
314;DHT22;143;51.634;7.112;2023-11-21T04:59:33;9.40;1.00
314;DHT22;143;51.634;7.112;2023-11-21T05:01:58;9.10;1.00
314;DHT22;143;51.634;7.112;2023-11-21T05:04:25;9.20;1.00
314;DHT22;143;51.634;7.112;2023-11-21T05:06:51;9.30;1.00
314;DHT22;143;51.634;7.112;2023-11-21T05:09:16;9.50;1.00
314;DHT22;143;51.634;7.112;2023-11-21T05:11:43;9.20;1.00
314;DHT22;143;51.634;7.112;2023-11-21T05:14:08;9.40;1.00
314;DHT22;143;51.634;7.112;2023-11-21T05:16:34;9.30;1.00
314;DHT22;143;51.634;7.112;2023-11-21T05:19:00;9.10;1.00
314;DHT22;143;51.634;7.112;2023-11-21T05:21:27;9.30;1.00
314;DHT22;143;51.634;7.112;2023-11-21T05:23:52;9.40;1.00
314;DHT22;143;51.634;7.112;2023-11-21T05:26:18;9.40;1.00
314;DHT22;143;51.634;7.112;2023-11-21T05:28:44;9.50;1.00
314;DHT22;143;51.634;7.112;2023-11-21T05:31:09;9.40;1.00
314;DHT22;143;51.634;7.112;2023-11-21T05:33:36;9.20;1.00
314;DHT22;143;51.634;7.112;2023-11-21T05:36:02;9.30;1.00
314;DHT22;143;51.634;7.112;2023-11-21T05:38:27;9.30;1.00
314;DHT22;143;51.634;7.112;2023-11-21T05:40:53;9.40;1.00
314;DHT22;143;51.634;7.112;2023-11-21T05:43:19;9.40;1.00
314;DHT22;143;51.634;7.112;2023-11-21T05:45:45;9.10;1.00
314;DHT22;143;51.634;7.112;2023-11-21T05:48:10;9.30;1.00
314;DHT22;143;51.634;7.112;2023-11-21T05:50:36;9.30;1.00
314;DHT22;143;51.634;7.112;2023-11-21T05:53:03;9.40;1.00
314;DHT22;143;51.634;7.112;2023-11-21T05:55:29;9.30;1.00
314;DHT22;143;51.634;7.112;2023-11-21T05:57:54;9.20;1.00
314;DHT22;143;51.634;7.112;2023-11-21T06:00:20;9.50;1.00
314;DHT22;143;51.634;7.112;2023-11-21T06:02:47;9.20;1.00
314;DHT22;143;51.634;7.112;2023-11-21T06:05:16;9.20;1.00
314;DHT22;143;51.634;7.112;2023-11-21T06:07:43;9.40;1.00
314;DHT22;143;51.634;7.112;2023-11-21T06:10:10;9.40;1.00
314;DHT22;143;51.634;7.112;2023-11-21T06:12:38;9.50;1.00
314;DHT22;143;51.634;7.112;2023-11-21T06:15:04;9.20;1.00
314;DHT22;143;51.634;7.112;2023-11-21T06:17:31;9.50;1.00
314;DHT22;143;51.634;7.112;2023-11-21T06:19:57;9.50;1.00
314;DHT22;143;51.634;7.112;2023-11-21T06:22:22;9.20;1.00
314;DHT22;143;51.634;7.112;2023-11-21T06:24:48;9.40;1.00
314;DHT22;143;51.634;7.112;2023-11-21T06:27:13;9.60;1.00
314;DHT22;143;51.634;7.112;2023-11-21T06:29:39;9.30;1.00
314;DHT22;143;51.634;7.112;2023-11-21T06:32:05;9.40;1.00
314;DHT22;143;51.634;7.112;2023-11-21T06:34:31;9.50;1.00
314;DHT22;143;51.634;7.112;2023-11-21T06:36:56;9.40;1.00
314;DHT22;143;51.634;7.112;2023-11-21T06:39:22;9.60;1.00
314;DHT22;143;51.634;7.112;2023-11-21T06:41:49;9.40;1.00
314;DHT22;143;51.634;7.112;2023-11-21T06:44:15;9.30;1.00
314;DHT22;143;51.634;7.112;2023-11-21T06:46:40;9.50;1.00
314;DHT22;143;51.634;7.112;2023-11-21T06:49:08;9.30;1.00
314;DHT22;143;51.634;7.112;2023-11-21T06:51:33;9.40;1.00
314;DHT22;143;51.634;7.112;2023-11-21T06:53:59;9.60;1.00
314;DHT22;143;51.634;7.112;2023-11-21T06:56:24;9.60;1.00
314;DHT22;143;51.634;7.112;2023-11-21T06:58:50;9.60;1.00
314;DHT22;143;51.634;7.112;2023-11-21T07:01:19;9.40;1.00
314;DHT22;143;51.634;7.112;2023-11-21T07:03:45;9.70;1.00
314;DHT22;143;51.634;7.112;2023-11-21T07:06:11;9.60;1.00
314;DHT22;143;51.634;7.112;2023-11-21T07:08:37;9.40;1.00
314;DHT22;143;51.634;7.112;2023-11-21T07:11:03;9.60;1.00
314;DHT22;143;51.634;7.112;2023-11-21T07:13:29;9.60;1.00
314;DHT22;143;51.634;7.112;2023-11-21T07:15:56;9.50;1.00
314;DHT22;143;51.634;7.112;2023-11-21T07:18:21;9.40;1.00
314;DHT22;143;51.634;7.112;2023-11-21T07:20:47;9.50;1.00
314;DHT22;143;51.634;7.112;2023-11-21T07:23:12;9.50;1.00
314;DHT22;143;51.634;7.112;2023-11-21T07:25:38;9.60;1.00
314;DHT22;143;51.634;7.112;2023-11-21T07:28:03;9.60;1.00
314;DHT22;143;51.634;7.112;2023-11-21T07:30:30;9.70;1.00
314;DHT22;143;51.634;7.112;2023-11-21T07:32:56;9.50;1.00
314;DHT22;143;51.634;7.112;2023-11-21T07:35:21;9.40;1.00
314;DHT22;143;51.634;7.112;2023-11-21T07:37:47;9.50;1.00
314;DHT22;143;51.634;7.112;2023-11-21T07:40:14;9.50;1.00
314;DHT22;143;51.634;7.112;2023-11-21T07:42:40;9.60;1.00
314;DHT22;143;51.634;7.112;2023-11-21T07:45:08;9.40;1.00
314;DHT22;143;51.634;7.112;2023-11-21T07:47:33;9.50;1.00
314;DHT22;143;51.634;7.112;2023-11-21T07:50:00;9.50;1.00
314;DHT22;143;51.634;7.112;2023-11-21T07:52:26;9.40;1.00
314;DHT22;143;51.634;7.112;2023-11-21T07:54:51;9.60;1.00
314;DHT22;143;51.634;7.112;2023-11-21T07:57:17;9.50;1.00
314;DHT22;143;51.634;7.112;2023-11-21T07:59:42;9.40;1.00
314;DHT22;143;51.634;7.112;2023-11-21T08:02:08;9.50;1.00
314;DHT22;143;51.634;7.112;2023-11-21T08:04:33;9.50;1.00
314;DHT22;143;51.634;7.112;2023-11-21T08:07:01;9.50;1.00
314;DHT22;143;51.634;7.112;2023-11-21T08:09:26;9.70;1.00
314;DHT22;143;51.634;7.112;2023-11-21T08:11:52;9.50;1.00
314;DHT22;143;51.634;7.112;2023-11-21T08:14:18;9.50;1.00
314;DHT22;143;51.634;7.112;2023-11-21T08:16:45;9.80;1.00
314;DHT22;143;51.634;7.112;2023-11-21T08:19:11;9.60;1.00
314;DHT22;143;51.634;7.112;2023-11-21T08:21:36;9.60;1.00
314;DHT22;143;51.634;7.112;2023-11-21T08:24:06;9.60;1.00
314;DHT22;143;51.634;7.112;2023-11-21T08:26:32;9.50;1.00
314;DHT22;143;51.634;7.112;2023-11-21T08:28:58;9.60;1.00
314;DHT22;143;51.634;7.112;2023-11-21T08:31:27;9.70;1.00
314;DHT22;143;51.634;7.112;2023-11-21T08:33:54;9.70;1.00
314;DHT22;143;51.634;7.112;2023-11-21T08:36:21;9.70;1.00
314;DHT22;143;51.634;7.112;2023-11-21T08:38:49;9.80;1.00
314;DHT22;143;51.634;7.112;2023-11-21T08:41:15;9.90;1.00
314;DHT22;143;51.634;7.112;2023-11-21T08:43:41;9.60;1.00
314;DHT22;143;51.634;7.112;2023-11-21T08:46:07;9.70;1.00
314;DHT22;143;51.634;7.112;2023-11-21T08:48:36;9.80;1.00
314;DHT22;143;51.634;7.112;2023-11-21T08:51:03;9.60;1.00
314;DHT22;143;51.634;7.112;2023-11-21T08:53:29;9.80;1.00
314;DHT22;143;51.634;7.112;2023-11-21T08:55:56;9.70;1.00
314;DHT22;143;51.634;7.112;2023-11-21T08:58:22;9.60;1.00
314;DHT22;143;51.634;7.112;2023-11-21T09:00:47;9.80;1.00
314;DHT22;143;51.634;7.112;2023-11-21T09:03:13;9.60;1.00
314;DHT22;143;51.634;7.112;2023-11-21T09:05:39;9.80;1.00
314;DHT22;143;51.634;7.112;2023-11-21T09:08:05;9.90;1.00
314;DHT22;143;51.634;7.112;2023-11-21T09:10:33;9.80;1.00
314;DHT22;143;51.634;7.112;2023-11-21T09:13:01;9.80;1.00
314;DHT22;143;51.634;7.112;2023-11-21T09:15:27;9.90;1.00
314;DHT22;143;51.634;7.112;2023-11-21T09:17:53;9.90;1.00
314;DHT22;143;51.634;7.112;2023-11-21T09:20:19;9.90;1.00
314;DHT22;143;51.634;7.112;2023-11-21T09:22:48;9.90;1.00
314;DHT22;143;51.634;7.112;2023-11-21T09:25:14;9.80;1.00
314;DHT22;143;51.634;7.112;2023-11-21T09:27:40;9.60;1.00
314;DHT22;143;51.634;7.112;2023-11-21T09:30:07;9.70;1.00
314;DHT22;143;51.634;7.112;2023-11-21T09:32:35;9.80;1.00
314;DHT22;143;51.634;7.112;2023-11-21T09:35:03;9.80;1.00
314;DHT22;143;51.634;7.112;2023-11-21T09:37:29;9.90;1.00
314;DHT22;143;51.634;7.112;2023-11-21T09:39:55;10.00;1.00
314;DHT22;143;51.634;7.112;2023-11-21T09:42:27;9.90;1.00
314;DHT22;143;51.634;7.112;2023-11-21T09:45:08;10.00;1.00
314;DHT22;143;51.634;7.112;2023-11-21T09:47:38;10.10;1.00
314;DHT22;143;51.634;7.112;2023-11-21T09:50:06;9.70;1.00
314;DHT22;143;51.634;7.112;2023-11-21T09:53:21;9.80;1.00
314;DHT22;143;51.634;7.112;2023-11-21T09:55:28;9.90;1.00
314;DHT22;143;51.634;7.112;2023-11-21T09:58:02;9.70;1.00
314;DHT22;143;51.634;7.112;2023-11-21T10:00:29;9.80;1.00
314;DHT22;143;51.634;7.112;2023-11-21T10:02:58;9.70;1.00
314;DHT22;143;51.634;7.112;2023-11-21T10:05:24;9.80;1.00
314;DHT22;143;51.634;7.112;2023-11-21T10:07:50;9.80;1.00
314;DHT22;143;51.634;7.112;2023-11-21T10:10:18;9.90;1.00
314;DHT22;143;51.634;7.112;2023-11-21T10:12:48;10.10;1.00
314;DHT22;143;51.634;7.112;2023-11-21T10:15:15;10.10;1.00
314;DHT22;143;51.634;7.112;2023-11-21T10:17:44;10.10;1.00
314;DHT22;143;51.634;7.112;2023-11-21T10:20:14;10.10;1.00
314;DHT22;143;51.634;7.112;2023-11-21T10:22:43;10.10;1.00
314;DHT22;143;51.634;7.112;2023-11-21T10:25:12;10.20;1.00
314;DHT22;143;51.634;7.112;2023-11-21T10:27:40;10.20;1.00
314;DHT22;143;51.634;7.112;2023-11-21T10:30:10;10.20;1.00
314;DHT22;143;51.634;7.112;2023-11-21T10:32:39;10.30;1.00
314;DHT22;143;51.634;7.112;2023-11-21T10:35:06;10.60;1.00
314;DHT22;143;51.634;7.112;2023-11-21T10:37:36;10.40;1.00
314;DHT22;143;51.634;7.112;2023-11-21T10:40:06;10.40;1.00
314;DHT22;143;51.634;7.112;2023-11-21T10:42:32;10.50;1.00
314;DHT22;143;51.634;7.112;2023-11-21T10:44:58;10.50;1.00
314;DHT22;143;51.634;7.112;2023-11-21T10:47:23;10.60;1.00
314;DHT22;143;51.634;7.112;2023-11-21T10:49:49;10.80;1.00
314;DHT22;143;51.634;7.112;2023-11-21T10:52:15;10.70;1.00
314;DHT22;143;51.634;7.112;2023-11-21T10:54:43;10.80;1.00
314;DHT22;143;51.634;7.112;2023-11-21T10:57:10;10.80;1.00
314;DHT22;143;51.634;7.112;2023-11-21T10:59:36;10.70;1.00
314;DHT22;143;51.634;7.112;2023-11-21T11:02:14;10.80;1.00
314;DHT22;143;51.634;7.112;2023-11-21T11:04:42;10.80;1.00
314;DHT22;143;51.634;7.112;2023-11-21T11:07:12;10.80;1.00
314;DHT22;143;51.634;7.112;2023-11-21T11:09:38;10.80;1.00
314;DHT22;143;51.634;7.112;2023-11-21T11:12:04;10.90;1.00
314;DHT22;143;51.634;7.112;2023-11-21T11:14:32;10.90;1.00
314;DHT22;143;51.634;7.112;2023-11-21T11:16:58;10.90;1.00
314;DHT22;143;51.634;7.112;2023-11-21T11:19:25;10.90;1.00
314;DHT22;143;51.634;7.112;2023-11-21T11:27:44;11.10;1.00
314;DHT22;143;51.634;7.112;2023-11-21T11:30:26;11.00;1.00
314;DHT22;143;51.634;7.112;2023-11-21T11:33:14;11.10;1.00
314;DHT22;143;51.634;7.112;2023-11-21T11:36:05;11.00;1.00
314;DHT22;143;51.634;7.112;2023-11-21T11:38:33;11.00;1.00
314;DHT22;143;51.634;7.112;2023-11-21T11:41:05;11.00;1.00
314;DHT22;143;51.634;7.112;2023-11-21T11:43:31;11.10;1.00
314;DHT22;143;51.634;7.112;2023-11-21T11:46:10;11.10;1.00
314;DHT22;143;51.634;7.112;2023-11-21T11:48:39;11.10;1.00
314;DHT22;143;51.634;7.112;2023-11-21T11:51:15;11.10;1.00
314;DHT22;143;51.634;7.112;2023-11-21T11:53:44;11.10;1.00
314;DHT22;143;51.634;7.112;2023-11-21T11:58:48;11.10;1.00
314;DHT22;143;51.634;7.112;2023-11-21T12:01:13;11.20;1.00
314;DHT22;143;51.634;7.112;2023-11-21T12:03:39;11.20;1.00
314;DHT22;143;51.634;7.112;2023-11-21T12:06:05;11.20;1.00
314;DHT22;143;51.634;7.112;2023-11-21T12:08:32;11.20;1.00
314;DHT22;143;51.634;7.112;2023-11-21T12:10:58;11.20;1.00
314;DHT22;143;51.634;7.112;2023-11-21T12:13:24;11.20;1.00
314;DHT22;143;51.634;7.112;2023-11-21T12:15:49;11.30;1.00
314;DHT22;143;51.634;7.112;2023-11-21T12:18:15;11.30;1.00
314;DHT22;143;51.634;7.112;2023-11-21T12:20:41;11.30;1.00
314;DHT22;143;51.634;7.112;2023-11-21T12:23:08;11.30;1.00
314;DHT22;143;51.634;7.112;2023-11-21T12:25:34;11.30;1.00
314;DHT22;143;51.634;7.112;2023-11-21T12:28:02;11.40;1.00
314;DHT22;143;51.634;7.112;2023-11-21T12:30:33;11.40;1.00
314;DHT22;143;51.634;7.112;2023-11-21T12:33:01;11.40;1.00
314;DHT22;143;51.634;7.112;2023-11-21T12:35:29;11.40;1.00
314;DHT22;143;51.634;7.112;2023-11-21T12:37:56;11.40;1.00
314;DHT22;143;51.634;7.112;2023-11-21T12:40:25;11.40;1.00
314;DHT22;143;51.634;7.112;2023-11-21T12:42:55;11.40;1.00
314;DHT22;143;51.634;7.112;2023-11-21T12:47:47;11.40;1.00
314;DHT22;143;51.634;7.112;2023-11-21T12:50:15;11.40;1.00
314;DHT22;143;51.634;7.112;2023-11-21T12:52:47;11.40;1.00
314;DHT22;143;51.634;7.112;2023-11-21T12:55:15;11.40;1.00
314;DHT22;143;51.634;7.112;2023-11-21T12:57:42;11.40;1.00
314;DHT22;143;51.634;7.112;2023-11-21T13:00:09;11.30;1.00
314;DHT22;143;51.634;7.112;2023-11-21T13:02:40;11.30;1.00
314;DHT22;143;51.634;7.112;2023-11-21T13:05:08;11.30;1.00
314;DHT22;143;51.634;7.112;2023-11-21T13:07:44;11.20;1.00
314;DHT22;143;51.634;7.112;2023-11-21T13:10:13;11.30;1.00
314;DHT22;143;51.634;7.112;2023-11-21T13:12:47;11.30;1.00
314;DHT22;143;51.634;7.112;2023-11-21T13:15:14;11.30;1.00
314;DHT22;143;51.634;7.112;2023-11-21T13:17:43;11.30;1.00
314;DHT22;143;51.634;7.112;2023-11-21T13:20:11;11.40;1.00
314;DHT22;143;51.634;7.112;2023-11-21T13:22:51;11.20;1.00
314;DHT22;143;51.634;7.112;2023-11-21T13:25:23;11.20;1.00
314;DHT22;143;51.634;7.112;2023-11-21T13:27:49;11.30;1.00
314;DHT22;143;51.634;7.112;2023-11-21T13:30:16;11.20;1.00
314;DHT22;143;51.634;7.112;2023-11-21T13:32:45;11.20;1.00
314;DHT22;143;51.634;7.112;2023-11-21T13:35:17;11.20;1.00
314;DHT22;143;51.634;7.112;2023-11-21T13:37:56;11.20;1.00
314;DHT22;143;51.634;7.112;2023-11-21T13:40:25;11.20;1.00
314;DHT22;143;51.634;7.112;2023-11-21T13:42:55;11.20;1.00
314;DHT22;143;51.634;7.112;2023-11-21T13:45:25;11.10;1.00
314;DHT22;143;51.634;7.112;2023-11-21T13:47:52;11.10;1.00
314;DHT22;143;51.634;7.112;2023-11-21T13:50:24;11.10;1.00
314;DHT22;143;51.634;7.112;2023-11-21T13:52:54;11.10;1.00
314;DHT22;143;51.634;7.112;2023-11-21T13:55:20;11.20;1.00
314;DHT22;143;51.634;7.112;2023-11-21T13:57:47;11.00;1.00
314;DHT22;143;51.634;7.112;2023-11-21T14:00:17;11.00;1.00
314;DHT22;143;51.634;7.112;2023-11-21T14:03:07;11.00;1.00
314;DHT22;143;51.634;7.112;2023-11-21T14:05:43;10.80;1.00
314;DHT22;143;51.634;7.112;2023-11-21T14:08:10;10.90;1.00
314;DHT22;143;51.634;7.112;2023-11-21T14:10:37;11.00;1.00
314;DHT22;143;51.634;7.112;2023-11-21T14:13:08;10.90;1.00
314;DHT22;143;51.634;7.112;2023-11-21T14:15:38;11.20;1.00
314;DHT22;143;51.634;7.112;2023-11-21T14:18:07;11.00;1.00
314;DHT22;143;51.634;7.112;2023-11-21T14:20:36;11.00;1.00
314;DHT22;143;51.634;7.112;2023-11-21T14:23:05;10.80;1.00
314;DHT22;143;51.634;7.112;2023-11-21T14:25:33;11.00;1.00
314;DHT22;143;51.634;7.112;2023-11-21T14:27:59;11.10;1.00
314;DHT22;143;51.634;7.112;2023-11-21T14:30:24;11.10;1.00
314;DHT22;143;51.634;7.112;2023-11-21T14:32:51;11.00;1.00
314;DHT22;143;51.634;7.112;2023-11-21T14:35:17;11.00;1.00
314;DHT22;143;51.634;7.112;2023-11-21T14:37:43;11.00;1.00
314;DHT22;143;51.634;7.112;2023-11-21T14:40:09;10.90;1.00
314;DHT22;143;51.634;7.112;2023-11-21T14:42:36;11.10;1.00
314;DHT22;143;51.634;7.112;2023-11-21T14:45:05;10.90;1.00
314;DHT22;143;51.634;7.112;2023-11-21T14:47:32;11.10;1.00
314;DHT22;143;51.634;7.112;2023-11-21T14:50:02;10.80;1.00
314;DHT22;143;51.634;7.112;2023-11-21T14:52:47;10.80;1.00
314;DHT22;143;51.634;7.112;2023-11-21T14:55:24;10.90;1.00
314;DHT22;143;51.634;7.112;2023-11-21T14:57:55;10.70;1.00
314;DHT22;143;51.634;7.112;2023-11-21T15:00:21;10.60;1.00
314;DHT22;143;51.634;7.112;2023-11-21T15:02:59;10.80;1.00
314;DHT22;143;51.634;7.112;2023-11-21T15:05:24;10.50;1.00
314;DHT22;143;51.634;7.112;2023-11-21T15:07:52;10.50;1.00
314;DHT22;143;51.634;7.112;2023-11-21T15:10:21;10.50;1.00
314;DHT22;143;51.634;7.112;2023-11-21T15:12:54;10.50;1.00
314;DHT22;143;51.634;7.112;2023-11-21T15:15:20;10.40;1.00
314;DHT22;143;51.634;7.112;2023-11-21T15:17:46;10.30;1.00
314;DHT22;143;51.634;7.112;2023-11-21T15:20:13;10.30;1.00
314;DHT22;143;51.634;7.112;2023-11-21T15:22:44;10.20;1.00
314;DHT22;143;51.634;7.112;2023-11-21T15:25:10;10.00;1.00
314;DHT22;143;51.634;7.112;2023-11-21T15:27:36;10.30;1.00
314;DHT22;143;51.634;7.112;2023-11-21T15:30:02;10.20;1.00
314;DHT22;143;51.634;7.112;2023-11-21T15:32:31;10.20;1.00
314;DHT22;143;51.634;7.112;2023-11-21T15:34:56;10.10;1.00
314;DHT22;143;51.634;7.112;2023-11-21T15:37:22;10.20;1.00
314;DHT22;143;51.634;7.112;2023-11-21T15:39:48;10.20;1.00
314;DHT22;143;51.634;7.112;2023-11-21T15:42:13;9.90;1.00
314;DHT22;143;51.634;7.112;2023-11-21T15:44:39;9.90;1.00
314;DHT22;143;51.634;7.112;2023-11-21T15:47:05;10.10;1.00
314;DHT22;143;51.634;7.112;2023-11-21T15:49:33;9.80;1.00
314;DHT22;143;51.634;7.112;2023-11-21T15:52:04;9.80;1.00
314;DHT22;143;51.634;7.112;2023-11-21T15:54:31;9.80;1.00
314;DHT22;143;51.634;7.112;2023-11-21T15:56:59;9.80;1.00
314;DHT22;143;51.634;7.112;2023-11-21T15:59:26;9.70;1.00
314;DHT22;143;51.634;7.112;2023-11-21T16:01:55;9.60;1.00
314;DHT22;143;51.634;7.112;2023-11-21T16:04:22;9.60;1.00
314;DHT22;143;51.634;7.112;2023-11-21T16:06:49;9.40;1.00
314;DHT22;143;51.634;7.112;2023-11-21T16:09:15;9.60;1.00
314;DHT22;143;51.634;7.112;2023-11-21T16:11:49;9.50;1.00
314;DHT22;143;51.634;7.112;2023-11-21T16:14:19;9.60;1.00
314;DHT22;143;51.634;7.112;2023-11-21T16:16:46;9.40;1.00
314;DHT22;143;51.634;7.112;2023-11-21T16:19:11;9.70;1.00
314;DHT22;143;51.634;7.112;2023-11-21T16:21:37;9.30;1.00
314;DHT22;143;51.634;7.112;2023-11-21T16:24:03;9.50;1.00
314;DHT22;143;51.634;7.112;2023-11-21T16:26:29;9.70;1.00
314;DHT22;143;51.634;7.112;2023-11-21T16:28:56;9.60;1.00
314;DHT22;143;51.634;7.112;2023-11-21T16:31:24;9.40;1.00
314;DHT22;143;51.634;7.112;2023-11-21T16:33:50;9.40;1.00
314;DHT22;143;51.634;7.112;2023-11-21T16:36:16;9.40;1.00
314;DHT22;143;51.634;7.112;2023-11-21T16:38:42;9.40;1.00
314;DHT22;143;51.634;7.112;2023-11-21T16:41:08;9.50;1.00
314;DHT22;143;51.634;7.112;2023-11-21T16:43:34;9.50;1.00
314;DHT22;143;51.634;7.112;2023-11-21T16:46:00;9.30;1.00
314;DHT22;143;51.634;7.112;2023-11-21T16:48:26;9.40;1.00
314;DHT22;143;51.634;7.112;2023-11-21T16:50:51;9.60;1.00
314;DHT22;143;51.634;7.112;2023-11-21T16:53:17;9.30;1.00
314;DHT22;143;51.634;7.112;2023-11-21T16:55:43;9.20;1.00
314;DHT22;143;51.634;7.112;2023-11-21T16:58:08;9.40;1.00
314;DHT22;143;51.634;7.112;2023-11-21T17:00:34;9.50;1.00
314;DHT22;143;51.634;7.112;2023-11-21T17:03:00;9.30;1.00
314;DHT22;143;51.634;7.112;2023-11-21T17:05:25;9.20;1.00
314;DHT22;143;51.634;7.112;2023-11-21T17:07:51;9.10;1.00
314;DHT22;143;51.634;7.112;2023-11-21T17:10:17;9.00;1.00
314;DHT22;143;51.634;7.112;2023-11-21T17:12:44;9.20;1.00